Terminal Aerodrome Forecast
Issued by NWS

Home | Current Version | Previous Version | Text Only | Print | Product List | Glossary On
Versions: 1 2 3 4 5 6 7 8 9 10 11 12 13 14 15 16 17 18 19
457
FTUS45 KGGW 052326
TAFSDY
TAF
KSDY 052326Z 0600/0624 24009KT P6SM SCT250
     FM060500 23015KT P6SM SCT250 WS020/35040KT
     FM061800 26021G30KT P6SM BKN250 WS020/27050KT
     FM062100 27026G38KT P6SM BKN200
      AMD LTD TO CLD VIS AND WIND=

USA.gov is the U.S. government's official web portal to all federal, state and local government web resources and services.